sensor_id;sensor_type;location;lat;lon;timestamp;P1;durP1;ratioP1;P2;durP2;ratioP2
39434;SDS011;66825;51.880;-0.518;2024-03-06T00:00:45;3.03;;;2.20;;
39434;SDS011;66825;51.880;-0.518;2024-03-06T00:03:10;2.30;;;1.90;;
39434;SDS011;66825;51.880;-0.518;2024-03-06T00:05:36;2.70;;;2.20;;
39434;SDS011;66825;51.880;-0.518;2024-03-06T00:08:01;2.75;;;2.10;;
39434;SDS011;66825;51.880;-0.518;2024-03-06T00:10:29;3.25;;;2.30;;
39434;SDS011;66825;51.880;-0.518;2024-03-06T00:12:54;2.35;;;1.88;;
39434;SDS011;66825;51.880;-0.518;2024-03-06T00:15:20;2.78;;;2.10;;
39434;SDS011;66825;51.880;-0.518;2024-03-06T00:17:45;2.50;;;2.00;;
39434;SDS011;66825;51.880;-0.518;2024-03-06T00:20:11;2.75;;;2.15;;
39434;SDS011;66825;51.880;-0.518;2024-03-06T00:22:36;2.47;;;2.00;;
39434;SDS011;66825;51.880;-0.518;2024-03-06T00:25:02;2.55;;;2.20;;
39434;SDS011;66825;51.880;-0.518;2024-03-06T00:27:31;2.92;;;2.20;;
39434;SDS011;66825;51.880;-0.518;2024-03-06T00:29:56;2.30;;;2.08;;
39434;SDS011;66825;51.880;-0.518;2024-03-06T00:32:21;2.70;;;1.92;;
39434;SDS011;66825;51.880;-0.518;2024-03-06T00:34:48;2.78;;;2.10;;
39434;SDS011;66825;51.880;-0.518;2024-03-06T00:37:14;3.30;;;2.17;;
39434;SDS011;66825;51.880;-0.518;2024-03-06T00:39:39;2.25;;;2.00;;
39434;SDS011;66825;51.880;-0.518;2024-03-06T00:42:05;2.75;;;2.20;;
39434;SDS011;66825;51.880;-0.518;2024-03-06T00:44:30;2.95;;;2.33;;
39434;SDS011;66825;51.880;-0.518;2024-03-06T00:46:56;3.85;;;2.40;;
39434;SDS011;66825;51.880;-0.518;2024-03-06T00:49:21;2.92;;;2.40;;
39434;SDS011;66825;51.880;-0.518;2024-03-06T00:51:47;2.47;;;2.17;;
39434;SDS011;66825;51.880;-0.518;2024-03-06T00:54:12;2.75;;;2.15;;
39434;SDS011;66825;51.880;-0.518;2024-03-06T00:56:38;2.80;;;2.13;;
39434;SDS011;66825;51.880;-0.518;2024-03-06T00:59:04;2.60;;;2.22;;
39434;SDS011;66825;51.880;-0.518;2024-03-06T01:01:29;3.17;;;2.45;;
39434;SDS011;66825;51.880;-0.518;2024-03-06T01:03:55;2.60;;;2.20;;
39434;SDS011;66825;51.880;-0.518;2024-03-06T01:06:20;2.50;;;2.10;;
39434;SDS011;66825;51.880;-0.518;2024-03-06T01:08:46;2.88;;;2.45;;
39434;SDS011;66825;51.880;-0.518;2024-03-06T01:11:11;3.00;;;2.35;;
39434;SDS011;66825;51.880;-0.518;2024-03-06T01:13:39;3.25;;;2.30;;
39434;SDS011;66825;51.880;-0.518;2024-03-06T01:16:05;3.35;;;2.30;;
39434;SDS011;66825;51.880;-0.518;2024-03-06T01:18:31;2.70;;;2.20;;
39434;SDS011;66825;51.880;-0.518;2024-03-06T01:20:57;2.58;;;2.30;;
39434;SDS011;66825;51.880;-0.518;2024-03-06T01:23:22;3.40;;;2.47;;
39434;SDS011;66825;51.880;-0.518;2024-03-06T01:25:48;2.80;;;2.17;;
39434;SDS011;66825;51.880;-0.518;2024-03-06T01:28:13;3.20;;;2.58;;
39434;SDS011;66825;51.880;-0.518;2024-03-06T01:30:38;3.03;;;2.20;;
39434;SDS011;66825;51.880;-0.518;2024-03-06T01:33:04;2.67;;;2.33;;
39434;SDS011;66825;51.880;-0.518;2024-03-06T01:35:30;2.97;;;2.20;;
39434;SDS011;66825;51.880;-0.518;2024-03-06T01:37:55;2.97;;;2.40;;
39434;SDS011;66825;51.880;-0.518;2024-03-06T01:40:21;2.75;;;2.33;;
39434;SDS011;66825;51.880;-0.518;2024-03-06T01:42:46;2.60;;;2.20;;
39434;SDS011;66825;51.880;-0.518;2024-03-06T01:45:14;3.25;;;2.50;;
39434;SDS011;66825;51.880;-0.518;2024-03-06T01:47:39;2.70;;;2.22;;
39434;SDS011;66825;51.880;-0.518;2024-03-06T01:50:05;3.38;;;2.60;;
39434;SDS011;66825;51.880;-0.518;2024-03-06T01:52:34;3.85;;;2.50;;
39434;SDS011;66825;51.880;-0.518;2024-03-06T01:55:01;2.63;;;2.40;;
39434;SDS011;66825;51.880;-0.518;2024-03-06T01:57:27;3.28;;;2.70;;
39434;SDS011;66825;51.880;-0.518;2024-03-06T01:59:54;2.78;;;2.45;;
39434;SDS011;66825;51.880;-0.518;2024-03-06T02:02:19;2.85;;;2.50;;
39434;SDS011;66825;51.880;-0.518;2024-03-06T02:04:46;3.22;;;2.35;;
39434;SDS011;66825;51.880;-0.518;2024-03-06T02:07:11;2.88;;;2.47;;
39434;SDS011;66825;51.880;-0.518;2024-03-06T02:09:39;2.72;;;2.40;;
39434;SDS011;66825;51.880;-0.518;2024-03-06T02:12:05;4.05;;;2.70;;
39434;SDS011;66825;51.880;-0.518;2024-03-06T02:14:33;3.15;;;2.60;;
39434;SDS011;66825;51.880;-0.518;2024-03-06T02:17:00;2.88;;;2.45;;
39434;SDS011;66825;51.880;-0.518;2024-03-06T02:19:36;2.70;;;2.50;;
39434;SDS011;66825;51.880;-0.518;2024-03-06T02:22:06;2.50;;;2.30;;
39434;SDS011;66825;51.880;-0.518;2024-03-06T02:24:32;2.75;;;2.53;;
39434;SDS011;66825;51.880;-0.518;2024-03-06T02:26:58;3.40;;;2.63;;
39434;SDS011;66825;51.880;-0.518;2024-03-06T02:29:24;3.17;;;2.47;;
39434;SDS011;66825;51.880;-0.518;2024-03-06T02:31:49;2.97;;;2.67;;
39434;SDS011;66825;51.880;-0.518;2024-03-06T02:34:15;2.55;;;2.33;;
39434;SDS011;66825;51.880;-0.518;2024-03-06T02:36:40;2.97;;;2.45;;
39434;SDS011;66825;51.880;-0.518;2024-03-06T02:39:07;2.88;;;2.58;;
39434;SDS011;66825;51.880;-0.518;2024-03-06T02:41:37;2.60;;;2.40;;
39434;SDS011;66825;51.880;-0.518;2024-03-06T02:44:02;3.38;;;2.60;;
39434;SDS011;66825;51.880;-0.518;2024-03-06T02:46:28;3.40;;;2.60;;
39434;SDS011;66825;51.880;-0.518;2024-03-06T02:48:54;2.90;;;2.60;;
39434;SDS011;66825;51.880;-0.518;2024-03-06T02:51:20;3.60;;;2.55;;
39434;SDS011;66825;51.880;-0.518;2024-03-06T02:53:46;3.30;;;2.55;;
39434;SDS011;66825;51.880;-0.518;2024-03-06T02:56:17;2.97;;;2.53;;
39434;SDS011;66825;51.880;-0.518;2024-03-06T02:58:43;3.17;;;2.65;;
39434;SDS011;66825;51.880;-0.518;2024-03-06T03:01:10;3.20;;;2.53;;
39434;SDS011;66825;51.880;-0.518;2024-03-06T03:03:35;3.00;;;2.70;;
39434;SDS011;66825;51.880;-0.518;2024-03-06T03:06:01;2.80;;;2.50;;
39434;SDS011;66825;51.880;-0.518;2024-03-06T03:08:27;2.90;;;2.60;;
39434;SDS011;66825;51.880;-0.518;2024-03-06T03:10:52;3.22;;;2.50;;
39434;SDS011;66825;51.880;-0.518;2024-03-06T03:13:17;3.75;;;2.90;;
39434;SDS011;66825;51.880;-0.518;2024-03-06T03:15:43;3.10;;;2.80;;
39434;SDS011;66825;51.880;-0.518;2024-03-06T03:18:09;3.35;;;2.67;;
39434;SDS011;66825;51.880;-0.518;2024-03-06T03:20:34;3.20;;;2.90;;
39434;SDS011;66825;51.880;-0.518;2024-03-06T03:23:01;3.35;;;2.53;;
39434;SDS011;66825;51.880;-0.518;2024-03-06T03:25:27;3.45;;;2.70;;
39434;SDS011;66825;51.880;-0.518;2024-03-06T03:27:52;3.53;;;2.80;;
39434;SDS011;66825;51.880;-0.518;2024-03-06T03:30:18;3.40;;;2.80;;
39434;SDS011;66825;51.880;-0.518;2024-03-06T03:32:47;3.70;;;2.60;;
39434;SDS011;66825;51.880;-0.518;2024-03-06T03:35:13;3.50;;;2.60;;
39434;SDS011;66825;51.880;-0.518;2024-03-06T03:37:39;3.35;;;2.65;;
39434;SDS011;66825;51.880;-0.518;2024-03-06T03:40:05;3.42;;;2.80;;
39434;SDS011;66825;51.880;-0.518;2024-03-06T03:42:32;3.63;;;3.13;;
39434;SDS011;66825;51.880;-0.518;2024-03-06T03:44:57;4.50;;;3.33;;
39434;SDS011;66825;51.880;-0.518;2024-03-06T03:47:23;4.28;;;2.92;;
39434;SDS011;66825;51.880;-0.518;2024-03-06T03:49:48;3.45;;;2.60;;
39434;SDS011;66825;51.880;-0.518;2024-03-06T03:52:13;3.50;;;2.83;;
39434;SDS011;66825;51.880;-0.518;2024-03-06T03:54:39;2.92;;;2.40;;
39434;SDS011;66825;51.880;-0.518;2024-03-06T03:57:05;3.60;;;3.05;;
39434;SDS011;66825;51.880;-0.518;2024-03-06T03:59:32;3.70;;;2.97;;
39434;SDS011;66825;51.880;-0.518;2024-03-06T04:01:57;4.28;;;2.97;;
39434;SDS011;66825;51.880;-0.518;2024-03-06T04:04:23;4.45;;;3.13;;
39434;SDS011;66825;51.880;-0.518;2024-03-06T04:06:49;5.03;;;2.90;;
39434;SDS011;66825;51.880;-0.518;2024-03-06T04:09:14;3.75;;;2.90;;
39434;SDS011;66825;51.880;-0.518;2024-03-06T04:11:40;3.42;;;2.78;;
39434;SDS011;66825;51.880;-0.518;2024-03-06T04:14:06;3.47;;;2.80;;
39434;SDS011;66825;51.880;-0.518;2024-03-06T04:16:32;4.03;;;2.95;;
39434;SDS011;66825;51.880;-0.518;2024-03-06T04:19:01;4.20;;;3.22;;
39434;SDS011;66825;51.880;-0.518;2024-03-06T04:21:27;4.03;;;2.90;;
39434;SDS011;66825;51.880;-0.518;2024-03-06T04:23:52;4.00;;;3.25;;
39434;SDS011;66825;51.880;-0.518;2024-03-06T04:26:18;4.82;;;3.25;;
39434;SDS011;66825;51.880;-0.518;2024-03-06T04:28:44;4.43;;;2.90;;
39434;SDS011;66825;51.880;-0.518;2024-03-06T04:31:09;4.45;;;3.13;;
39434;SDS011;66825;51.880;-0.518;2024-03-06T04:33:35;5.32;;;3.10;;
39434;SDS011;66825;51.880;-0.518;2024-03-06T04:36:01;4.35;;;3.17;;
39434;SDS011;66825;51.880;-0.518;2024-03-06T04:38:28;4.95;;;3.22;;
39434;SDS011;66825;51.880;-0.518;2024-03-06T04:40:54;4.57;;;3.45;;
39434;SDS011;66825;51.880;-0.518;2024-03-06T04:43:20;3.88;;;2.97;;
39434;SDS011;66825;51.880;-0.518;2024-03-06T04:45:45;3.92;;;2.80;;
39434;SDS011;66825;51.880;-0.518;2024-03-06T04:48:10;4.75;;;3.33;;
39434;SDS011;66825;51.880;-0.518;2024-03-06T04:50:37;4.70;;;3.40;;
39434;SDS011;66825;51.880;-0.518;2024-03-06T04:53:02;4.20;;;3.15;;
39434;SDS011;66825;51.880;-0.518;2024-03-06T04:55:28;4.47;;;3.03;;
39434;SDS011;66825;51.880;-0.518;2024-03-06T04:57:55;3.97;;;3.10;;
39434;SDS011;66825;51.880;-0.518;2024-03-06T05:00:20;4.20;;;3.20;;
39434;SDS011;66825;51.880;-0.518;2024-03-06T05:02:47;4.25;;;3.28;;
39434;SDS011;66825;51.880;-0.518;2024-03-06T05:05:14;4.32;;;3.50;;
39434;SDS011;66825;51.880;-0.518;2024-03-06T05:07:40;4.32;;;3.13;;
39434;SDS011;66825;51.880;-0.518;2024-03-06T05:10:06;4.78;;;3.22;;
39434;SDS011;66825;51.880;-0.518;2024-03-06T05:12:33;3.63;;;3.05;;
39434;SDS011;66825;51.880;-0.518;2024-03-06T05:14:59;4.30;;;2.90;;
39434;SDS011;66825;51.880;-0.518;2024-03-06T05:17:25;5.57;;;3.25;;
39434;SDS011;66825;51.880;-0.518;2024-03-06T05:19:51;3.88;;;3.17;;
39434;SDS011;66825;51.880;-0.518;2024-03-06T05:22:16;4.43;;;2.95;;
39434;SDS011;66825;51.880;-0.518;2024-03-06T05:24:42;4.90;;;3.50;;
39434;SDS011;66825;51.880;-0.518;2024-03-06T05:27:09;5.57;;;3.33;;
39434;SDS011;66825;51.880;-0.518;2024-03-06T05:29:35;6.28;;;3.40;;
39434;SDS011;66825;51.880;-0.518;2024-03-06T05:32:02;4.13;;;3.03;;
39434;SDS011;66825;51.880;-0.518;2024-03-06T05:34:28;5.35;;;3.42;;
39434;SDS011;66825;51.880;-0.518;2024-03-06T05:36:54;5.18;;;3.72;;
39434;SDS011;66825;51.880;-0.518;2024-03-06T05:39:20;3.97;;;3.28;;
39434;SDS011;66825;51.880;-0.518;2024-03-06T05:41:46;5.88;;;3.75;;
39434;SDS011;66825;51.880;-0.518;2024-03-06T05:44:11;3.95;;;3.22;;
39434;SDS011;66825;51.880;-0.518;2024-03-06T05:46:37;4.00;;;3.15;;
39434;SDS011;66825;51.880;-0.518;2024-03-06T05:49:03;4.80;;;3.65;;
39434;SDS011;66825;51.880;-0.518;2024-03-06T05:51:29;4.43;;;3.60;;
39434;SDS011;66825;51.880;-0.518;2024-03-06T05:53:55;4.88;;;3.55;;
39434;SDS011;66825;51.880;-0.518;2024-03-06T05:56:21;4.35;;;3.65;;
39434;SDS011;66825;51.880;-0.518;2024-03-06T05:58:46;4.75;;;3.53;;
39434;SDS011;66825;51.880;-0.518;2024-03-06T06:01:12;3.97;;;3.35;;
39434;SDS011;66825;51.880;-0.518;2024-03-06T06:03:40;5.07;;;3.55;;
39434;SDS011;66825;51.880;-0.518;2024-03-06T06:06:06;4.95;;;3.50;;
39434;SDS011;66825;51.880;-0.518;2024-03-06T06:08:33;5.18;;;3.70;;
39434;SDS011;66825;51.880;-0.518;2024-03-06T06:11:00;4.35;;;3.40;;
39434;SDS011;66825;51.880;-0.518;2024-03-06T06:13:25;4.18;;;3.58;;
39434;SDS011;66825;51.880;-0.518;2024-03-06T06:15:51;5.03;;;3.90;;
39434;SDS011;66825;51.880;-0.518;2024-03-06T06:18:16;4.70;;;3.60;;
39434;SDS011;66825;51.880;-0.518;2024-03-06T06:20:42;3.92;;;3.38;;
39434;SDS011;66825;51.880;-0.518;2024-03-06T06:23:07;4.65;;;3.80;;
39434;SDS011;66825;51.880;-0.518;2024-03-06T06:25:35;5.03;;;3.50;;
39434;SDS011;66825;51.880;-0.518;2024-03-06T06:28:00;5.78;;;3.92;;
39434;SDS011;66825;51.880;-0.518;2024-03-06T06:30:26;4.55;;;3.50;;
39434;SDS011;66825;51.880;-0.518;2024-03-06T06:32:52;4.45;;;3.72;;
39434;SDS011;66825;51.880;-0.518;2024-03-06T06:35:17;5.25;;;3.92;;
39434;SDS011;66825;51.880;-0.518;2024-03-06T06:37:43;5.13;;;4.05;;
39434;SDS011;66825;51.880;-0.518;2024-03-06T06:40:08;4.88;;;3.78;;
39434;SDS011;66825;51.880;-0.518;2024-03-06T06:42:35;5.97;;;3.70;;
39434;SDS011;66825;51.880;-0.518;2024-03-06T06:45:01;4.80;;;3.60;;
39434;SDS011;66825;51.880;-0.518;2024-03-06T06:47:27;4.13;;;3.40;;
39434;SDS011;66825;51.880;-0.518;2024-03-06T06:49:53;4.68;;;3.47;;
39434;SDS011;66825;51.880;-0.518;2024-03-06T06:52:18;4.30;;;3.55;;
39434;SDS011;66825;51.880;-0.518;2024-03-06T06:54:44;5.47;;;3.70;;
39434;SDS011;66825;51.880;-0.518;2024-03-06T06:57:10;4.60;;;3.47;;
39434;SDS011;66825;51.880;-0.518;2024-03-06T06:59:35;4.30;;;3.20;;
39434;SDS011;66825;51.880;-0.518;2024-03-06T07:02:02;4.72;;;3.40;;
39434;SDS011;66825;51.880;-0.518;2024-03-06T07:04:27;4.45;;;3.20;;
39434;SDS011;66825;51.880;-0.518;2024-03-06T07:06:53;4.78;;;2.90;;
39434;SDS011;66825;51.880;-0.518;2024-03-06T07:09:19;3.83;;;3.22;;
39434;SDS011;66825;51.880;-0.518;2024-03-06T07:11:44;3.50;;;2.88;;
39434;SDS011;66825;51.880;-0.518;2024-03-06T07:14:11;3.85;;;3.03;;
39434;SDS011;66825;51.880;-0.518;2024-03-06T07:16:44;4.30;;;3.17;;
39434;SDS011;66825;51.880;-0.518;2024-03-06T07:19:10;4.72;;;3.22;;
39434;SDS011;66825;51.880;-0.518;2024-03-06T07:21:36;3.65;;;2.92;;
39434;SDS011;66825;51.880;-0.518;2024-03-06T07:24:02;4.13;;;3.10;;
39434;SDS011;66825;51.880;-0.518;2024-03-06T07:26:29;3.72;;;3.28;;
39434;SDS011;66825;51.880;-0.518;2024-03-06T07:28:57;4.07;;;2.97;;
39434;SDS011;66825;51.880;-0.518;2024-03-06T07:31:23;4.53;;;3.10;;
39434;SDS011;66825;51.880;-0.518;2024-03-06T07:33:49;4.20;;;3.40;;
39434;SDS011;66825;51.880;-0.518;2024-03-06T07:36:15;4.15;;;3.10;;
39434;SDS011;66825;51.880;-0.518;2024-03-06T07:38:41;3.80;;;2.88;;
39434;SDS011;66825;51.880;-0.518;2024-03-06T07:41:07;4.18;;;2.85;;
39434;SDS011;66825;51.880;-0.518;2024-03-06T07:43:33;4.53;;;3.45;;
39434;SDS011;66825;51.880;-0.518;2024-03-06T07:45:58;3.75;;;3.10;;
39434;SDS011;66825;51.880;-0.518;2024-03-06T07:48:24;3.70;;;3.10;;
39434;SDS011;66825;51.880;-0.518;2024-03-06T07:50:49;3.45;;;2.85;;
39434;SDS011;66825;51.880;-0.518;2024-03-06T07:53:15;4.07;;;3.10;;
39434;SDS011;66825;51.880;-0.518;2024-03-06T07:55:41;3.88;;;3.03;;
39434;SDS011;66825;51.880;-0.518;2024-03-06T07:58:07;4.10;;;3.10;;
39434;SDS011;66825;51.880;-0.518;2024-03-06T08:00:35;4.88;;;3.42;;
39434;SDS011;66825;51.880;-0.518;2024-03-06T08:03:01;4.72;;;3.42;;
39434;SDS011;66825;51.880;-0.518;2024-03-06T08:05:27;4.70;;;3.10;;
39434;SDS011;66825;51.880;-0.518;2024-03-06T08:07:53;3.78;;;2.78;;
39434;SDS011;66825;51.880;-0.518;2024-03-06T08:10:19;3.92;;;3.13;;
39434;SDS011;66825;51.880;-0.518;2024-03-06T08:12:45;4.03;;;3.17;;
39434;SDS011;66825;51.880;-0.518;2024-03-06T08:15:13;3.72;;;3.30;;
39434;SDS011;66825;51.880;-0.518;2024-03-06T08:17:41;4.82;;;3.38;;
39434;SDS011;66825;51.880;-0.518;2024-03-06T08:20:08;4.13;;;3.20;;
39434;SDS011;66825;51.880;-0.518;2024-03-06T08:22:36;4.03;;;3.10;;
39434;SDS011;66825;51.880;-0.518;2024-03-06T08:25:10;4.97;;;3.58;;
39434;SDS011;66825;51.880;-0.518;2024-03-06T08:27:37;5.45;;;3.30;;
39434;SDS011;66825;51.880;-0.518;2024-03-06T08:30:04;4.45;;;3.20;;
39434;SDS011;66825;51.880;-0.518;2024-03-06T08:32:31;5.55;;;3.70;;
39434;SDS011;66825;51.880;-0.518;2024-03-06T08:35:00;5.03;;;3.70;;
39434;SDS011;66825;51.880;-0.518;2024-03-06T08:37:40;4.45;;;3.30;;
39434;SDS011;66825;51.880;-0.518;2024-03-06T08:40:06;4.47;;;3.35;;
39434;SDS011;66825;51.880;-0.518;2024-03-06T08:42:40;4.10;;;3.42;;
39434;SDS011;66825;51.880;-0.518;2024-03-06T08:45:07;4.47;;;3.15;;
39434;SDS011;66825;51.880;-0.518;2024-03-06T08:47:33;4.65;;;3.67;;
39434;SDS011;66825;51.880;-0.518;2024-03-06T08:49:59;5.15;;;3.60;;
39434;SDS011;66825;51.880;-0.518;2024-03-06T08:52:24;5.20;;;3.72;;
39434;SDS011;66825;51.880;-0.518;2024-03-06T08:54:50;4.70;;;3.40;;
39434;SDS011;66825;51.880;-0.518;2024-03-06T08:57:15;4.38;;;3.45;;
39434;SDS011;66825;51.880;-0.518;2024-03-06T08:59:41;6.15;;;3.83;;
39434;SDS011;66825;51.880;-0.518;2024-03-06T09:02:15;5.05;;;3.90;;
39434;SDS011;66825;51.880;-0.518;2024-03-06T09:04:43;5.30;;;3.33;;
39434;SDS011;66825;51.880;-0.518;2024-03-06T09:07:09;4.65;;;3.63;;
39434;SDS011;66825;51.880;-0.518;2024-03-06T09:09:35;4.32;;;3.28;;
39434;SDS011;66825;51.880;-0.518;2024-03-06T09:12:02;4.82;;;3.72;;
39434;SDS011;66825;51.880;-0.518;2024-03-06T09:14:30;5.63;;;3.60;;
39434;SDS011;66825;51.880;-0.518;2024-03-06T09:16:57;8.55;;;4.10;;
39434;SDS011;66825;51.880;-0.518;2024-03-06T09:19:22;7.97;;;4.38;;
39434;SDS011;66825;51.880;-0.518;2024-03-06T09:21:48;7.50;;;4.32;;
39434;SDS011;66825;51.880;-0.518;2024-03-06T09:24:13;7.47;;;4.35;;
39434;SDS011;66825;51.880;-0.518;2024-03-06T09:26:39;6.18;;;4.05;;
39434;SDS011;66825;51.880;-0.518;2024-03-06T09:29:04;6.85;;;4.22;;
39434;SDS011;66825;51.880;-0.518;2024-03-06T09:31:30;6.80;;;3.97;;
39434;SDS011;66825;51.880;-0.518;2024-03-06T09:33:55;8.18;;;4.00;;
39434;SDS011;66825;51.880;-0.518;2024-03-06T09:36:21;8.55;;;4.43;;
39434;SDS011;66825;51.880;-0.518;2024-03-06T09:38:47;7.82;;;4.10;;
39434;SDS011;66825;51.880;-0.518;2024-03-06T09:41:12;9.88;;;4.00;;
39434;SDS011;66825;51.880;-0.518;2024-03-06T09:43:38;8.27;;;3.90;;
39434;SDS011;66825;51.880;-0.518;2024-03-06T09:46:06;9.07;;;3.92;;
39434;SDS011;66825;51.880;-0.518;2024-03-06T09:48:31;8.70;;;4.18;;
39434;SDS011;66825;51.880;-0.518;2024-03-06T09:51:00;12.85;;;4.70;;
39434;SDS011;66825;51.880;-0.518;2024-03-06T09:53:27;11.63;;;4.60;;
39434;SDS011;66825;51.880;-0.518;2024-03-06T09:55:53;10.02;;;4.63;;
39434;SDS011;66825;51.880;-0.518;2024-03-06T09:58:21;8.85;;;4.95;;
39434;SDS011;66825;51.880;-0.518;2024-03-06T10:00:47;11.18;;;4.63;;
39434;SDS011;66825;51.880;-0.518;2024-03-06T10:03:15;13.48;;;4.82;;
39434;SDS011;66825;51.880;-0.518;2024-03-06T10:05:40;13.50;;;4.65;;
39434;SDS011;66825;51.880;-0.518;2024-03-06T10:08:08;11.23;;;4.18;;
39434;SDS011;66825;51.880;-0.518;2024-03-06T10:10:35;14.50;;;4.78;;
39434;SDS011;66825;51.880;-0.518;2024-03-06T10:13:01;23.23;;;6.80;;
39434;SDS011;66825;51.880;-0.518;2024-03-06T10:15:28;13.00;;;5.13;;
39434;SDS011;66825;51.880;-0.518;2024-03-06T10:18:28;12.80;;;5.25;;
39434;SDS011;66825;51.880;-0.518;2024-03-06T10:20:46;14.40;;;5.32;;
39434;SDS011;66825;51.880;-0.518;2024-03-06T10:23:11;13.65;;;5.05;;
39434;SDS011;66825;51.880;-0.518;2024-03-06T10:25:37;10.68;;;5.13;;
39434;SDS011;66825;51.880;-0.518;2024-03-06T10:28:06;10.88;;;5.55;;
39434;SDS011;66825;51.880;-0.518;2024-03-06T10:30:33;14.82;;;5.55;;
39434;SDS011;66825;51.880;-0.518;2024-03-06T10:33:04;15.05;;;5.57;;
39434;SDS011;66825;51.880;-0.518;2024-03-06T10:35:31;14.35;;;4.97;;
39434;SDS011;66825;51.880;-0.518;2024-03-06T10:37:59;16.17;;;6.20;;
39434;SDS011;66825;51.880;-0.518;2024-03-06T10:40:26;20.10;;;6.00;;
39434;SDS011;66825;51.880;-0.518;2024-03-06T10:42:55;15.18;;;6.25;;
39434;SDS011;66825;51.880;-0.518;2024-03-06T10:45:21;12.55;;;5.13;;
39434;SDS011;66825;51.880;-0.518;2024-03-06T10:50:17;13.35;;;5.53;;
39434;SDS011;66825;51.880;-0.518;2024-03-06T10:52:44;9.65;;;5.03;;
39434;SDS011;66825;51.880;-0.518;2024-03-06T10:55:12;9.95;;;4.97;;
39434;SDS011;66825;51.880;-0.518;2024-03-06T10:57:38;14.32;;;5.45;;
39434;SDS011;66825;51.880;-0.518;2024-03-06T11:00:07;13.95;;;5.18;;
39434;SDS011;66825;51.880;-0.518;2024-03-06T11:02:33;12.88;;;5.53;;
39434;SDS011;66825;51.880;-0.518;2024-03-06T11:05:01;9.40;;;4.68;;
39434;SDS011;66825;51.880;-0.518;2024-03-06T11:07:30;9.77;;;4.65;;
39434;SDS011;66825;51.880;-0.518;2024-03-06T11:09:58;9.57;;;4.90;;
39434;SDS011;66825;51.880;-0.518;2024-03-06T11:12:35;10.20;;;5.38;;
39434;SDS011;66825;51.880;-0.518;2024-03-06T11:15:09;10.00;;;5.47;;
39434;SDS011;66825;51.880;-0.518;2024-03-06T11:17:38;12.32;;;5.32;;
39434;SDS011;66825;51.880;-0.518;2024-03-06T11:26:12;8.93;;;4.68;;
39434;SDS011;66825;51.880;-0.518;2024-03-06T11:28:19;10.73;;;5.20;;
39434;SDS011;66825;51.880;-0.518;2024-03-06T11:30:46;14.77;;;5.90;;
39434;SDS011;66825;51.880;-0.518;2024-03-06T11:33:12;14.43;;;5.57;;
39434;SDS011;66825;51.880;-0.518;2024-03-06T11:36:12;11.93;;;5.75;;
39434;SDS011;66825;51.880;-0.518;2024-03-06T11:38:52;15.77;;;5.95;;
39434;SDS011;66825;51.880;-0.518;2024-03-06T11:41:22;10.50;;;5.40;;
39434;SDS011;66825;51.880;-0.518;2024-03-06T11:43:50;9.32;;;5.32;;
39434;SDS011;66825;51.880;-0.518;2024-03-06T11:46:18;15.57;;;6.20;;
39434;SDS011;66825;51.880;-0.518;2024-03-06T11:48:51;13.05;;;5.78;;
39434;SDS011;66825;51.880;-0.518;2024-03-06T11:51:18;13.85;;;6.13;;
39434;SDS011;66825;51.880;-0.518;2024-03-06T11:53:44;14.75;;;6.68;;
39434;SDS011;66825;51.880;-0.518;2024-03-06T11:56:10;21.88;;;7.25;;
39434;SDS011;66825;51.880;-0.518;2024-03-06T11:58:36;18.00;;;6.72;;
39434;SDS011;66825;51.880;-0.518;2024-03-06T12:01:03;17.40;;;6.38;;
39434;SDS011;66825;51.880;-0.518;2024-03-06T12:03:29;19.13;;;6.65;;
39434;SDS011;66825;51.880;-0.518;2024-03-06T12:05:55;17.00;;;6.65;;
39434;SDS011;66825;51.880;-0.518;2024-03-06T12:08:21;14.65;;;6.15;;
39434;SDS011;66825;51.880;-0.518;2024-03-06T12:10:46;19.13;;;6.07;;
39434;SDS011;66825;51.880;-0.518;2024-03-06T12:13:14;15.13;;;5.97;;
39434;SDS011;66825;51.880;-0.518;2024-03-06T12:15:43;13.32;;;6.00;;
39434;SDS011;66825;51.880;-0.518;2024-03-06T12:18:09;19.43;;;7.70;;
39434;SDS011;66825;51.880;-0.518;2024-03-06T12:20:39;19.92;;;7.45;;
39434;SDS011;66825;51.880;-0.518;2024-03-06T12:23:06;14.20;;;6.82;;
39434;SDS011;66825;51.880;-0.518;2024-03-06T12:25:32;16.05;;;6.68;;
39434;SDS011;66825;51.880;-0.518;2024-03-06T12:28:05;13.52;;;5.97;;
39434;SDS011;66825;51.880;-0.518;2024-03-06T12:30:40;20.27;;;7.60;;
39434;SDS011;66825;51.880;-0.518;2024-03-06T12:33:09;17.27;;;7.13;;
39434;SDS011;66825;51.880;-0.518;2024-03-06T12:35:39;15.10;;;6.47;;
39434;SDS011;66825;51.880;-0.518;2024-03-06T12:38:16;16.23;;;6.63;;
39434;SDS011;66825;51.880;-0.518;2024-03-06T12:40:42;11.95;;;6.18;;
39434;SDS011;66825;51.880;-0.518;2024-03-06T12:43:08;13.00;;;6.03;;
39434;SDS011;66825;51.880;-0.518;2024-03-06T12:45:34;21.50;;;7.15;;
39434;SDS011;66825;51.880;-0.518;2024-03-06T12:48:01;16.92;;;6.43;;
39434;SDS011;66825;51.880;-0.518;2024-03-06T12:50:28;23.00;;;8.88;;
39434;SDS011;66825;51.880;-0.518;2024-03-06T12:52:53;15.15;;;7.18;;
39434;SDS011;66825;51.880;-0.518;2024-03-06T12:55:19;16.17;;;7.18;;
39434;SDS011;66825;51.880;-0.518;2024-03-06T12:57:45;15.98;;;6.70;;
39434;SDS011;66825;51.880;-0.518;2024-03-06T13:00:11;15.15;;;6.55;;
39434;SDS011;66825;51.880;-0.518;2024-03-06T13:02:43;19.50;;;7.75;;
39434;SDS011;66825;51.880;-0.518;2024-03-06T13:05:10;18.15;;;7.97;;
39434;SDS011;66825;51.880;-0.518;2024-03-06T13:07:35;15.25;;;6.72;;
39434;SDS011;66825;51.880;-0.518;2024-03-06T13:10:01;18.55;;;7.57;;
39434;SDS011;66825;51.880;-0.518;2024-03-06T13:12:27;15.88;;;6.50;;
39434;SDS011;66825;51.880;-0.518;2024-03-06T13:14:54;16.15;;;7.15;;
39434;SDS011;66825;51.880;-0.518;2024-03-06T13:17:19;13.20;;;6.35;;
39434;SDS011;66825;51.880;-0.518;2024-03-06T13:19:45;18.60;;;7.50;;
39434;SDS011;66825;51.880;-0.518;2024-03-06T13:22:11;13.75;;;6.40;;
39434;SDS011;66825;51.880;-0.518;2024-03-06T13:24:36;14.10;;;6.60;;
39434;SDS011;66825;51.880;-0.518;2024-03-06T13:27:03;16.83;;;6.70;;
39434;SDS011;66825;51.880;-0.518;2024-03-06T13:29:28;11.77;;;6.20;;
39434;SDS011;66825;51.880;-0.518;2024-03-06T13:31:54;10.88;;;6.28;;
39434;SDS011;66825;51.880;-0.518;2024-03-06T13:34:19;13.32;;;5.82;;
39434;SDS011;66825;51.880;-0.518;2024-03-06T13:36:45;13.10;;;6.00;;
39434;SDS011;66825;51.880;-0.518;2024-03-06T13:39:10;10.40;;;5.40;;
39434;SDS011;66825;51.880;-0.518;2024-03-06T13:41:36;15.02;;;6.15;;
39434;SDS011;66825;51.880;-0.518;2024-03-06T13:44:01;12.02;;;5.90;;
39434;SDS011;66825;51.880;-0.518;2024-03-06T13:46:27;12.82;;;5.60;;
39434;SDS011;66825;51.880;-0.518;2024-03-06T13:48:52;15.20;;;5.90;;
39434;SDS011;66825;51.880;-0.518;2024-03-06T13:51:17;10.05;;;4.95;;
39434;SDS011;66825;51.880;-0.518;2024-03-06T13:53:43;10.07;;;5.10;;
39434;SDS011;66825;51.880;-0.518;2024-03-06T13:56:08;12.43;;;5.28;;
39434;SDS011;66825;51.880;-0.518;2024-03-06T13:58:34;10.88;;;4.90;;
39434;SDS011;66825;51.880;-0.518;2024-03-06T14:00:59;12.55;;;5.38;;
39434;SDS011;66825;51.880;-0.518;2024-03-06T14:03:25;9.98;;;5.15;;
39434;SDS011;66825;51.880;-0.518;2024-03-06T14:05:51;13.68;;;5.32;;
39434;SDS011;66825;51.880;-0.518;2024-03-06T14:08:17;12.32;;;5.22;;
39434;SDS011;66825;51.880;-0.518;2024-03-06T14:10:43;11.90;;;5.38;;
39434;SDS011;66825;51.880;-0.518;2024-03-06T14:13:10;14.75;;;5.45;;
39434;SDS011;66825;51.880;-0.518;2024-03-06T14:15:36;17.33;;;5.93;;
39434;SDS011;66825;51.880;-0.518;2024-03-06T14:18:01;11.25;;;5.25;;
39434;SDS011;66825;51.880;-0.518;2024-03-06T14:20:27;13.32;;;5.82;;
39434;SDS011;66825;51.880;-0.518;2024-03-06T14:22:53;12.35;;;5.30;;
39434;SDS011;66825;51.880;-0.518;2024-03-06T14:25:19;14.50;;;5.68;;
39434;SDS011;66825;51.880;-0.518;2024-03-06T14:27:45;17.15;;;6.47;;
39434;SDS011;66825;51.880;-0.518;2024-03-06T14:30:11;11.35;;;5.63;;
39434;SDS011;66825;51.880;-0.518;2024-03-06T14:32:37;12.95;;;5.55;;
39434;SDS011;66825;51.880;-0.518;2024-03-06T14:35:03;16.38;;;6.00;;